Time;durP1;ratioP1;P1;durP2;ratioP2;P2;SDS_P1;SDS_P2;PMS_P1;PMS_P2;Temp;Humidity;BMP_temperature;BMP_pressure;BME280_temperature;BME280_humidity;BME280_pressure;Samples;Min_cycle;Max_cycle;Signal;HPM_P1;HPM_P2
2022/08/08 00:00:04;;;;;;;4.50;1.10;;;;;;;14.27;61.83;98979.09;105768;1281;137853;-73
2022/08/08 00:03:18;;;;;;;2.60;1.10;;;;;;;14.25;61.66;98980.48;105976;1280;22700;-73
2022/08/08 00:06:02;;;;;;;1.20;0.80;;;;;;;14.23;62.03;98976.14;105574;1283;137252;-74
2022/08/08 00:08:35;;;;;;;2.20;0.70;;;;;;;14.22;61.73;98976.85;105700;1280;22561;-73
2022/08/08 00:11:16;;;;;;;3.60;1.20;;;;;;;14.22;61.87;98982.59;105532;1281;137999;-73
2022/08/08 00:14:00;;;;;;;3.00;1.10;;;;;;;14.20;62.23;98982.30;105851;1281;24234;-74
2022/08/08 00:16:54;;;;;;;2.50;1.00;;;;;;;14.16;62.18;98983.69;105668;1283;22538;-75
2022/08/08 00:19:48;;;;;;;1.90;1.00;;;;;;;14.14;62.35;98978.83;105604;1280;23351;-74
2022/08/08 00:22:23;;;;;;;2.60;1.00;;;;;;;14.10;62.27;98976.63;105720;1280;22862;-74
2022/08/08 00:25:06;;;;;;;;;;;;;;;14.09;62.51;98975.30;105800;1280;137275;-74
2022/08/08 00:27:35;;;;;;;;;;;;;;;14.06;62.53;98980.33;105744;1280;22686;-74
2022/08/08 00:30:08;;;;;;;2.30;0.80;;;;;;;14.04;62.53;98978.54;105759;1281;123827;-74
2022/08/08 00:32:44;;;;;;;1.80;0.70;;;;;;;14.03;62.73;98975.20;105738;1281;23304;-74
2022/08/08 00:35:39;;;;;;;2.10;1.00;;;;;;;14.05;62.98;98972.09;105635;1282;139550;-74
2022/08/08 00:38:06;;;;;;;2.00;1.10;;;;;;;14.06;62.95;98967.61;105748;1281;24326;-74
2022/08/08 00:40:59;;;;;;;3.50;1.20;;;;;;;14.09;62.82;98967.42;106062;1281;25790;-74
2022/08/08 00:44:06;;;;;;;0.70;0.70;;;;;;;14.10;62.84;98966.73;105899;1281;22577;-74
2022/08/08 00:47:01;;;;;;;2.80;0.90;;;;;;;14.12;62.69;98966.73;105772;1283;23918;-74
2022/08/08 00:50:00;;;;;;;1.30;0.90;;;;;;;14.12;62.81;98962.36;105980;1280;24430;-74
2022/08/08 00:52:37;;;;;;;2.80;1.10;;;;;;;14.12;62.79;98964.63;105950;1280;23744;-74
2022/08/08 00:55:13;;;;;;;2.10;1.00;;;;;;;14.12;63.00;98967.96;105239;1286;137023;-74
2022/08/08 00:57:55;;;;;;;1.40;1.10;;;;;;;14.12;62.96;98963.64;105986;1280;22567;-74
2022/08/08 01:00:26;;;;;;;1.70;0.90;;;;;;;14.11;62.95;98961.64;105665;1282;137345;-74
2022/08/08 01:03:26;;;;;;;3.20;1.20;;;;;;;14.10;63.02;98962.13;106005;1281;22576;-74
2022/08/08 01:06:30;;;;;;;2.40;1.00;;;;;;;14.07;63.18;98962.58;105553;1284;137318;-74
2022/08/08 01:09:17;;;;;;;1.80;1.00;;;;;;;14.04;63.01;98972.40;105710;1281;24279;-74
2022/08/08 01:12:11;;;;;;;2.20;1.10;;;;;;;14.03;63.27;98975.35;105680;1283;137218;-74
2022/08/08 01:15:03;;;;;;;2.90;1.10;;;;;;;14.00;63.42;98969.73;106097;1283;22647;-74
2022/08/08 01:17:54;;;;;;;4.20;1.10;;;;;;;13.99;63.59;98968.73;105836;1282;137239;-74
2022/08/08 01:20:49;;;;;;;1.80;1.00;;;;;;;13.98;63.71;98972.13;105790;1281;22554;-74
2022/08/08 01:23:39;;;;;;;3.00;1.10;;;;;;;13.99;63.65;98967.37;105552;1281;138163;-74
2022/08/08 01:26:21;;;;;;;2.30;1.00;;;;;;;14.05;63.71;98962.60;105784;1281;24433;-74
2022/08/08 01:29:15;;;;;;;1.40;0.90;;;;;;;14.11;63.53;98961.42;105535;1282;137427;-74
2022/08/08 01:32:11;;;;;;;1.50;1.20;;;;;;;14.16;63.52;98963.34;105781;1281;22567;-74
2022/08/08 01:35:06;;;;;;;1.60;0.80;;;;;;;14.19;63.70;98961.52;105699;1284;24547;-74
2022/08/08 01:37:47;;;;;;;2.50;1.10;;;;;;;14.20;63.67;98959.67;105708;1283;22547;-74
2022/08/08 01:40:43;;;;;;;2.60;1.10;;;;;;;14.20;63.78;98960.70;105795;1282;24265;-75
2022/08/08 01:43:10;;;;;;;2.20;1.10;;;;;;;14.18;63.77;98959.05;105742;1282;22723;-74
2022/08/08 01:46:01;;;;;;;1.70;1.00;;;;;;;14.17;63.76;98963.47;105710;1281;22573;-74
2022/08/08 01:48:41;;;;;;;2.40;1.40;;;;;;;14.15;64.04;98965.04;105602;1282;137266;-74
2022/08/08 01:51:31;;;;;;;4.30;1.10;;;;;;;14.13;63.86;98962.55;105668;1281;24431;-75
2022/08/08 01:54:26;;;;;;;3.30;1.10;;;;;;;14.07;63.87;98965.70;105478;1284;137881;-74
2022/08/08 01:57:03;;;;;;;3.30;1.40;;;;;;;14.04;64.00;98968.56;105708;1283;23080;-73
2022/08/08 01:59:59;;;;;;;2.10;1.20;;;;;;;14.02;64.29;98965.32;105601;1284;137554;-73
2022/08/08 02:02:56;;;;;;;4.40;0.80;;;;;;;13.99;64.62;98967.37;105639;1283;26497;-76
2022/08/08 02:05:48;;;;;;;4.70;1.00;;;;;;;13.99;64.55;98967.41;106092;1280;138091;-75
2022/08/08 02:08:50;;;;;;;3.30;1.10;;;;;;;14.01;64.64;98972.87;105750;1280;24406;-75
2022/08/08 02:11:31;;;;;;;2.10;1.10;;;;;;;14.02;64.49;98976.16;105629;1280;137500;-75
2022/08/08 02:14:02;;;;;;;1.30;1.20;;;;;;;14.01;64.44;98980.16;105869;1280;24507;-74
2022/08/08 02:17:15;;;;;;;2.20;1.00;;;;;;;14.01;64.65;98982.20;105577;1280;137989;-74
2022/08/08 02:20:11;;;;;;;2.30;1.00;;;;;;;14.03;64.62;98988.39;105568;1280;22572;-74
2022/08/08 02:22:52;;;;;;;6.90;1.30;;;;;;;14.04;64.57;98988.02;105878;1280;24328;-74
2022/08/08 02:25:36;;;;;;;1.20;0.90;;;;;;;14.05;64.48;98991.42;105674;1281;22564;-75
2022/08/08 02:28:23;;;;;;;1.20;1.00;;;;;;;14.07;64.70;98986.85;105617;1283;22534;-75
2022/08/08 02:31:10;;;;;;;3.70;1.20;;;;;;;14.09;64.99;98982.48;106012;1280;137176;-74
2022/08/08 02:33:57;;;;;;;2.00;1.20;;;;;;;14.10;65.15;98974.23;105764;1283;30472;-74
2022/08/08 02:36:33;;;;;;;1.30;1.20;;;;;;;14.09;64.96;98974.75;105739;1281;137385;-74
2022/08/08 02:39:03;;;;;;;2.40;1.00;;;;;;;14.06;65.07;98971.19;105713;1281;22583;-74
2022/08/08 02:41:58;;;;;;;3.10;1.20;;;;;;;14.03;64.88;98973.98;105656;1280;137543;-75
2022/08/08 02:44:42;;;;;;;1.50;0.80;;;;;;;13.99;64.97;98973.66;105830;1280;30624;-74
2022/08/08 02:47:15;;;;;;;2.00;1.20;;;;;;;13.99;65.00;98977.39;105908;1279;137786;-74
2022/08/08 02:50:10;;;;;;;1.70;1.10;;;;;;;14.00;65.01;98979.75;105853;1280;22615;-74
2022/08/08 02:53:13;;;;;;;1.40;1.30;;;;;;;14.00;64.88;98975.80;105890;1280;22541;-74
2022/08/08 02:55:49;;;;;;;3.00;0.90;;;;;;;14.00;65.03;98979.04;105610;1280;22709;-74
2022/08/08 02:58:38;;;;;;;1.90;1.10;;;;;;;14.01;65.32;98980.59;105723;1283;22637;-74
2022/08/08 03:01:18;;;;;;;1.30;1.20;;;;;;;14.03;65.37;98979.96;105543;1280;137287;-74
2022/08/08 03:04:15;;;;;;;2.50;0.90;;;;;;;14.05;65.14;98979.42;105664;1281;22574;-74
2022/08/08 03:07:02;;;;;;;1.10;1.00;;;;;;;14.05;64.92;98976.77;105890;1278;137715;-74
2022/08/08 03:09:35;;;;;;;1.80;1.20;;;;;;;14.04;65.07;98972.95;106293;1276;24430;-74
2022/08/08 03:12:16;;;;;;;2.90;1.10;;;;;;;14.05;65.07;98965.63;105716;1277;137941;-74
2022/08/08 03:15:20;;;;;;;3.50;1.10;;;;;;;14.05;65.15;98964.70;106238;1278;22576;-74
2022/08/08 03:18:15;;;;;;;1.30;1.00;;;;;;;14.06;65.06;98958.19;105408;1279;138963;-75
2022/08/08 03:20:49;;;;;;;3.30;1.00;;;;;;;14.07;65.22;98957.70;105978;1278;24435;-74
2022/08/08 03:23:21;;;;;;;4.10;0.80;;;;;;;14.08;64.88;98956.52;105777;1280;138746;-74
2022/08/08 03:25:49;;;;;;;5.10;1.00;;;;;;;14.11;64.99;98956.71;105731;1280;24000;-74
2022/08/08 03:28:31;;;;;;;2.40;1.10;;;;;;;14.12;64.97;98957.92;106285;1277;22631;-74
2022/08/08 03:30:58;;;;;;;3.90;1.00;;;;;;;14.13;64.96;98961.95;106024;1274;137654;-74
2022/08/08 03:33:25;;;;;;;1.40;1.00;;;;;;;14.14;64.95;98962.22;106641;1277;22605;-75
2022/08/08 03:35:57;;;;;;;1.40;1.10;;;;;;;14.15;64.94;98969.48;105801;1277;137121;-75
2022/08/08 03:38:24;;;;;;;2.20;1.10;;;;;;;14.17;64.91;98972.63;105790;1278;22549;-75
2022/08/08 03:40:54;;;;;;;1.00;0.90;;;;;;;14.18;64.84;98973.09;105719;1277;139305;-74
2022/08/08 03:43:23;;;;;;;1.50;0.90;;;;;;;14.22;64.89;98976.35;105760;1277;24224;-74
2022/08/08 03:45:54;;;;;;;2.20;1.00;;;;;;;14.24;64.98;98973.30;105574;1280;22667;-74
2022/08/08 03:48:21;;;;;;;2.30;1.30;;;;;;;14.25;64.83;98979.71;105903;1277;137169;-74
2022/08/08 03:50:49;;;;;;;4.00;1.70;;;;;;;14.26;64.77;98988.89;106041;1278;22548;-74
2022/08/08 03:53:20;;;;;;;3.90;1.40;;;;;;;14.28;64.80;98990.27;105736;1277;137527;-74
2022/08/08 03:55:49;;;;;;;4.30;1.00;;;;;;;14.29;64.90;98993.85;105922;1278;25321;-74
2022/08/08 03:58:20;;;;;;;;;;;;;;;14.30;64.86;98996.48;106731;1277;22819;-73
2022/08/08 04:00:56;;;;;;;2.50;1.00;;;;;;;14.31;64.87;99004.40;106024;1278;124498;-74
2022/08/08 04:03:33;;;;;;;2.00;1.00;;;;;;;14.36;64.90;99011.04;105929;1277;24230;-74
2022/08/08 04:06:15;;;;;;;2.60;1.10;;;;;;;14.44;64.89;99015.56;105891;1279;137164;-74
2022/08/08 04:08:43;;;;;;;2.00;1.10;;;;;;;14.52;65.04;99012.80;106008;1277;24316;-74
2022/08/08 04:11:15;;;;;;;2.00;1.20;;;;;;;14.59;64.98;99014.60;106083;1277;137823;-74
2022/08/08 04:13:42;;;;;;;2.40;0.90;;;;;;;14.64;65.05;99013.19;105830;1277;25356;-74
2022/08/08 04:16:09;;;;;;;3.40;1.10;;;;;;;14.71;64.88;99016.64;105975;1278;22537;-74
2022/08/08 04:18:41;;;;;;;2.00;1.20;;;;;;;14.77;64.72;99023.23;106202;1278;137824;-74
2022/08/08 04:21:08;;;;;;;1.40;0.90;;;;;;;14.82;64.69;99029.04;105946;1277;22553;-74
2022/08/08 04:23:35;;;;;;;3.80;1.00;;;;;;;14.84;64.17;99029.73;106441;1278;137193;-74
2022/08/08 04:26:02;;;;;;;1.30;1.00;;;;;;;14.86;64.29;99027.89;106118;1277;25318;-74
2022/08/08 04:28:29;;;;;;;3.20;0.90;;;;;;;14.89;64.45;99031.36;106229;1277;23071;-74
2022/08/08 04:30:56;;;;;;;2.20;1.00;;;;;;;14.92;64.27;99033.03;106363;1277;137443;-74
2022/08/08 04:33:23;;;;;;;5.50;1.10;;;;;;;14.94;64.30;99030.77;106100;1277;22573;-74
2022/08/08 04:35:49;;;;;;;4.00;1.00;;;;;;;14.98;64.33;99026.73;105930;1278;137214;-74
2022/08/08 04:38:17;;;;;;;3.00;1.30;;;;;;;15.02;64.48;99024.52;106220;1277;22549;-74
2022/08/08 04:40:44;;;;;;;7.30;1.30;;;;;;;15.05;64.40;99026.25;106653;1278;23551;-74
2022/08/08 04:43:12;;;;;;;3.00;1.40;;;;;;;15.08;64.06;99024.90;106298;1278;24237;-74
2022/08/08 04:45:42;;;;;;;1.50;1.40;;;;;;;15.11;64.10;99026.47;106287;1278;24360;-74
2022/08/08 04:48:09;;;;;;;3.00;1.30;;;;;;;15.17;64.20;99029.87;106058;1280;138829;-74
2022/08/08 04:50:37;;;;;;;2.50;1.40;;;;;;;15.25;64.39;99035.25;106284;1277;22540;-73
2022/08/08 04:53:05;;;;;;;5.10;1.50;;;;;;;15.31;64.08;99034.48;106091;1277;137440;-73
2022/08/08 04:55:33;;;;;;;2.30;1.20;;;;;;;15.35;64.07;99033.87;106655;1277;22569;-73
2022/08/08 04:58:00;;;;;;;2.30;1.10;;;;;;;15.40;63.97;99033.13;106722;1277;24296;-73
2022/08/08 05:00:27;;;;;;;2.90;1.10;;;;;;;15.43;63.84;99030.63;106526;1278;137247;-73
2022/08/08 05:02:55;;;;;;;3.90;1.10;;;;;;;15.43;63.63;99031.02;106416;1277;23325;-73
2022/08/08 05:05:22;;;;;;;4.50;1.10;;;;;;;15.42;63.76;99035.39;106387;1277;137310;-73
2022/08/08 05:07:50;;;;;;;1.50;0.80;;;;;;;15.43;63.83;99039.30;106084;1278;22762;-73
2022/08/08 05:10:17;;;;;;;2.90;1.30;;;;;;;15.43;63.54;99044.30;105951;1277;24346;-73
2022/08/08 05:12:44;;;;;;;2.50;1.00;;;;;;;15.40;63.54;99042.80;105809;1280;137353;-73
2022/08/08 05:15:11;;;;;;;3.70;1.10;;;;;;;15.38;63.92;99044.80;105943;1280;25313;-73
2022/08/08 05:17:38;;;;;;;2.30;1.10;;;;;;;15.40;64.28;99047.29;106264;1280;137918;-73
2022/08/08 05:20:19;;;;;;;2.90;1.30;;;;;;;15.45;64.42;99046.56;106162;1277;25300;-73
2022/08/08 05:22:49;;;;;;;2.30;0.90;;;;;;;15.51;65.07;99047.27;106142;1279;137357;-73
2022/08/08 05:25:30;;;;;;;1.90;0.90;;;;;;;15.60;64.70;99042.45;106187;1278;25342;-74
2022/08/08 05:27:58;;;;;;;5.00;1.10;;;;;;;15.69;64.35;99036.91;106144;1277;24234;-73
2022/08/08 05:30:38;;;;;;;1.90;1.00;;;;;;;15.79;63.84;99025.08;105855;1277;137468;-73
2022/08/08 05:33:05;;;;;;;2.40;1.10;;;;;;;15.85;63.95;99024.68;106064;1277;25541;-73
2022/08/08 05:35:34;;;;;;;6.90;1.10;;;;;;;15.92;63.49;99034.55;105976;1277;137302;-73
2022/08/08 05:38:06;;;;;;;;;;;;;;;15.96;63.50;99039.63;106642;1277;22700;-74
2022/08/08 05:40:49;;;;;;;2.40;1.20;;;;;;;16.00;63.42;99041.20;105937;1278;24424;-73
2022/08/08 05:43:25;;;;;;;2.50;1.10;;;;;;;16.03;62.80;99043.64;105991;1280;25369;-73
2022/08/08 05:45:59;;;;;;;5.50;1.20;;;;;;;16.05;63.15;99042.48;106000;1277;22976;-74
2022/08/08 05:48:26;;;;;;;2.10;1.10;;;;;;;16.09;62.81;99041.47;106044;1278;137339;-74
2022/08/08 05:50:53;;;;;;;0.90;0.80;;;;;;;16.11;62.66;99039.16;106112;1280;23910;-73
2022/08/08 05:53:34;;;;;;;4.40;1.20;;;;;;;16.14;63.02;99040.88;106098;1278;137187;-73
2022/08/08 05:56:02;;;;;;;2.10;1.20;;;;;;;16.16;62.80;99043.20;106201;1278;23941;-73
2022/08/08 05:58:31;;;;;;;2.20;1.00;;;;;;;16.18;63.29;99049.36;106927;1277;29320;-73
2022/08/08 06:01:01;;;;;;;3.50;1.10;;;;;;;16.21;63.06;99052.07;106072;1280;137720;-73
2022/08/08 06:03:30;;;;;;;2.90;1.20;;;;;;;16.21;62.71;99057.90;106519;1277;22535;-73
2022/08/08 06:06:15;;;;;;;4.10;1.10;;;;;;;16.22;62.55;99061.08;106125;1277;137608;-74
2022/08/08 06:08:49;;;;;;;3.40;1.90;;;;;;;16.21;62.41;99059.16;106313;1278;31495;-73
2022/08/08 06:11:16;;;;;;;4.50;1.40;;;;;;;16.21;62.43;99062.56;106081;1278;138620;-73
2022/08/08 06:13:46;;;;;;;3.50;1.00;;;;;;;16.23;62.57;99064.18;106476;1278;22561;-73
2022/08/08 06:16:15;;;;;;;5.00;1.20;;;;;;;16.21;62.75;99067.52;106268;1278;22568;-73
2022/08/08 06:19:00;;;;;;;2.50;1.20;;;;;;;16.22;63.12;99064.33;105995;1279;137807;-73
2022/08/08 06:21:29;;;;;;;2.30;1.00;;;;;;;16.22;63.20;99061.31;106277;1278;22620;-73
2022/08/08 06:24:11;;;;;;;5.70;1.40;;;;;;;16.22;63.34;99066.10;105974;1279;138160;-73
2022/08/08 06:26:49;;;;;;;2.70;1.00;;;;;;;16.24;63.36;99070.84;106318;1278;22575;-72
2022/08/08 06:29:34;;;;;;;4.00;1.20;;;;;;;16.27;63.33;99075.85;105883;1279;137769;-74
2022/08/08 06:32:03;;;;;;;2.70;1.30;;;;;;;16.33;63.36;99081.26;106099;1280;22567;-72
2022/08/08 06:34:38;;;;;;;2.10;0.90;;;;;;;16.40;63.79;99086.58;105974;1280;25503;-72
2022/08/08 06:37:11;;;;;;;3.90;1.30;;;;;;;16.50;64.00;99082.77;105924;1280;137214;-72
2022/08/08 06:39:43;;;;;;;6.30;1.00;;;;;;;16.57;63.55;99084.95;106079;1277;22614;-72
2022/08/08 06:42:30;;;;;;;3.10;0.90;;;;;;;16.66;64.07;99088.34;106018;1277;137369;-73
2022/08/08 06:45:00;;;;;;;4.60;1.40;;;;;;;16.70;62.77;99084.51;105965;1277;25219;-72
2022/08/08 06:47:27;;;;;;;2.90;1.00;;;;;;;16.70;62.57;99088.41;106073;1277;137429;-72
2022/08/08 06:49:54;;;;;;;2.30;1.10;;;;;;;16.72;62.64;99087.48;106012;1277;31753;-73
2022/08/08 06:52:22;;;;;;;5.00;1.40;;;;;;;16.75;62.52;99085.45;105982;1277;24285;-73
2022/08/08 06:54:50;;;;;;;3.90;1.40;;;;;;;16.79;62.58;99079.84;105752;1278;137861;-73
2022/08/08 06:57:17;;;;;;;3.10;1.50;;;;;;;16.84;62.62;99084.40;106511;1277;22541;-73
2022/08/08 06:59:44;;;;;;;2.10;1.20;;;;;;;16.88;62.18;99075.52;106326;1278;137393;-72
2022/08/08 07:02:21;;;;;;;5.50;2.00;;;;;;;16.92;62.15;99077.27;106227;1280;25223;-73
2022/08/08 07:04:51;;;;;;;3.30;1.30;;;;;;;16.93;62.44;99075.29;105923;1277;137389;-73
2022/08/08 07:07:38;;;;;;;4.70;1.20;;;;;;;16.95;62.15;99073.92;105955;1280;23015;-73
2022/08/08 07:10:11;;;;;;;2.00;1.00;;;;;;;17.00;61.95;99078.01;105864;1279;24211;-73
2022/08/08 07:12:45;;;;;;;2.20;1.30;;;;;;;17.03;62.06;99078.07;105777;1277;137296;-72
2022/08/08 07:15:16;;;;;;;1.80;1.00;;;;;;;17.06;62.13;99083.14;106280;1277;24283;-73
2022/08/08 07:17:49;;;;;;;2.90;1.00;;;;;;;17.13;62.11;99087.23;106001;1277;137567;-72
2022/08/08 07:20:20;;;;;;;2.60;1.00;;;;;;;17.20;61.88;99085.69;105165;1278;1385248;-73
2022/08/08 07:23:01;;;;;;;2.70;1.10;;;;;;;17.28;62.07;99085.21;106337;1278;137791;-73
2022/08/08 07:25:33;;;;;;;2.20;1.00;;;;;;;17.35;61.90;99079.04;106204;1280;25475;-73
2022/08/08 07:28:14;;;;;;;2.20;1.20;;;;;;;17.45;61.51;99080.48;106220;1279;25503;-73
2022/08/08 07:30:57;;;;;;;3.40;1.30;;;;;;;17.59;61.97;99086.54;106375;1279;138249;-74
2022/08/08 07:33:26;;;;;;;2.30;1.10;;;;;;;17.72;61.60;99090.95;106426;1277;23787;-73
2022/08/08 07:35:55;;;;;;;2.70;1.20;;;;;;;17.81;60.48;99091.82;106167;1277;137495;-73
2022/08/08 07:38:24;;;;;;;3.10;1.00;;;;;;;17.91;60.48;99094.38;105882;1277;22601;-74
2022/08/08 07:41:10;;;;;;;1.60;0.80;;;;;;;18.00;60.16;99096.73;106155;1279;137635;-74
2022/08/08 07:43:39;;;;;;;2.10;1.00;;;;;;;18.07;59.98;99099.58;106452;1278;22706;-74
2022/08/08 07:46:08;;;;;;;2.00;0.90;;;;;;;18.12;59.07;99096.16;105772;1278;22593;-74
2022/08/08 07:48:36;;;;;;;2.70;1.00;;;;;;;18.22;58.95;99103.46;105851;1278;137260;-73
2022/08/08 07:51:04;;;;;;;1.40;1.00;;;;;;;18.34;58.33;99104.42;105582;1280;25527;-72
2022/08/08 07:54:11;;;;;;;3.10;0.80;;;;;;;18.52;58.07;99100.23;106418;1280;137249;-73
2022/08/08 07:57:11;;;;;;;2.30;0.70;;;;;;;18.75;57.92;99105.87;106028;1279;25325;-72
2022/08/08 07:59:56;;;;;;;5.50;1.10;;;;;;;18.97;57.86;99100.70;106648;1279;137428;-72
2022/08/08 08:02:41;;;;;;;5.70;0.90;;;;;;;19.10;56.53;99094.62;105787;1279;23554;-72
2022/08/08 08:05:32;;;;;;;5.80;0.80;;;;;;;19.17;56.58;99095.02;106024;1277;137446;-72
2022/08/08 08:08:17;;;;;;;4.40;0.90;;;;;;;19.22;56.13;99098.23;106125;1280;24226;-72
2022/08/08 08:10:50;;;;;;;2.90;1.00;;;;;;;19.24;55.99;99100.44;106367;1279;22543;-73
2022/08/08 08:13:56;;;;;;;3.50;0.90;;;;;;;19.25;55.92;99102.36;105861;1279;25323;-73
2022/08/08 08:16:39;;;;;;;3.10;1.00;;;;;;;19.29;56.59;99103.10;105888;1279;23910;-73
2022/08/08 08:19:10;;;;;;;3.80;0.80;;;;;;;19.31;56.50;99102.09;105846;1279;137551;-73
2022/08/08 08:21:44;;;;;;;5.10;0.90;;;;;;;19.30;56.23;99098.14;106329;1279;22576;-73
2022/08/08 08:24:29;;;;;;;4.80;0.90;;;;;;;19.33;56.79;99100.80;105925;1278;137220;-72
2022/08/08 08:26:59;;;;;;;3.10;0.80;;;;;;;19.37;56.55;99108.08;105956;1280;25243;-73
2022/08/08 08:29:40;;;;;;;1.60;0.60;;;;;;;19.38;56.17;99110.83;105955;1280;137613;-73
2022/08/08 08:32:08;;;;;;;2.00;1.00;;;;;;;19.42;56.22;99111.03;105965;1280;22540;-74
2022/08/08 08:34:36;;;;;;;1.90;0.80;;;;;;;19.41;55.92;99114.41;105967;1279;22544;-72
2022/08/08 08:37:05;;;;;;;2.50;0.90;;;;;;;19.39;55.20;99116.02;106020;1279;137251;-72
2022/08/08 08:39:32;;;;;;;3.90;1.00;;;;;;;19.38;55.07;99113.88;106747;1279;23948;-72
2022/08/08 08:42:00;;;;;;;4.30;1.30;;;;;;;19.41;55.87;99116.95;106024;1280;137493;-73
2022/08/08 08:44:28;;;;;;;3.60;0.90;;;;;;;19.47;56.27;99118.45;106056;1280;22948;-72
2022/08/08 08:46:56;;;;;;;3.00;0.80;;;;;;;19.59;56.26;99118.86;105699;1277;137435;-74
2022/08/08 08:49:23;;;;;;;4.70;1.10;;;;;;;19.67;55.45;99118.58;106409;1280;24347;-73
2022/08/08 08:51:53;;;;;;;4.70;1.00;;;;;;;19.72;55.41;99113.95;105841;1279;22541;-72
2022/08/08 08:54:24;;;;;;;2.70;1.10;;;;;;;19.76;55.22;99113.00;106291;1279;137866;-72
2022/08/08 08:56:55;;;;;;;1.40;1.00;;;;;;;19.83;55.06;99117.54;106170;1279;22550;-72
2022/08/08 08:59:26;;;;;;;2.20;0.80;;;;;;;19.91;54.99;99117.07;106184;1280;137556;-72
2022/08/08 09:01:57;;;;;;;3.20;0.80;;;;;;;20.05;54.75;99122.90;105789;1280;24253;-74
2022/08/08 09:04:42;;;;;;;2.00;0.70;;;;;;;20.21;54.22;99121.86;105864;1278;24103;-72
2022/08/08 09:07:21;;;;;;;2.50;0.60;;;;;;;20.35;53.58;99116.74;106235;1281;25347;-72
2022/08/08 09:09:51;;;;;;;1.40;0.80;;;;;;;20.58;52.62;99116.16;106241;1279;25271;-74
2022/08/08 09:12:38;;;;;;;3.40;0.60;;;;;;;20.88;52.24;99113.47;105856;1280;137118;-72
2022/08/08 09:15:20;;;;;;;2.50;0.90;;;;;;;21.15;51.21;99114.27;106107;1279;22709;-74
2022/08/08 09:17:48;;;;;;;1.80;0.60;;;;;;;21.35;50.64;99107.55;105516;1280;137848;-74
2022/08/08 09:20:17;;;;;;;1.60;0.70;;;;;;;21.49;50.48;99108.15;105789;1280;24391;-74
2022/08/08 09:22:45;;;;;;;2.80;0.80;;;;;;;21.64;49.75;99107.84;106264;1279;23928;-73
2022/08/08 09:25:26;;;;;;;3.60;0.70;;;;;;;21.91;49.00;99106.17;105948;1280;23721;-73
2022/08/08 09:27:59;;;;;;;4.20;0.50;;;;;;;22.09;48.11;99104.46;105676;1280;22544;-74
2022/08/08 09:30:37;;;;;;;4.50;0.50;;;;;;;22.17;47.34;99104.02;105951;1279;137648;-73
2022/08/08 09:33:08;;;;;;;2.60;0.70;;;;;;;22.13;46.55;99102.67;105757;1280;22556;-73
2022/08/08 09:35:38;;;;;;;2.10;0.50;;;;;;;22.12;46.96;99101.23;105923;1279;137245;-73
2022/08/08 09:38:05;;;;;;;1.60;0.60;;;;;;;22.11;46.73;99097.00;106060;1277;22562;-73
2022/08/08 09:40:40;;;;;;;2.30;0.50;;;;;;;22.12;46.52;99099.77;106028;1277;23828;-73
2022/08/08 09:43:30;;;;;;;0.90;0.30;;;;;;;22.17;46.34;99100.04;106075;1277;22547;-73
2022/08/08 09:45:59;;;;;;;2.10;0.60;;;;;;;22.24;45.69;99098.88;105864;1278;22703;-73
2022/08/08 09:48:44;;;;;;;1.70;0.50;;;;;;;22.43;45.76;99097.59;106035;1277;137444;-73
2022/08/08 09:51:14;;;;;;;2.80;0.80;;;;;;;22.63;45.52;99096.23;106078;1277;24408;-74
2022/08/08 09:53:54;;;;;;;1.50;0.50;;;;;;;22.82;45.26;99096.16;106111;1277;137343;-73
2022/08/08 09:56:46;;;;;;;2.20;0.50;;;;;;;23.05;44.27;99092.40;106161;1279;22547;-73
2022/08/08 09:59:25;;;;;;;2.00;0.60;;;;;;;23.23;43.57;99091.58;105983;1280;137519;-74
2022/08/08 10:01:53;;;;;;;2.60;0.60;;;;;;;23.44;42.88;99085.12;105888;1277;24293;-72
2022/08/08 10:04:25;;;;;;;2.30;0.60;;;;;;;23.62;42.63;99086.18;106106;1277;24295;-72
2022/08/08 10:06:53;;;;;;;1.60;0.60;;;;;;;23.80;41.48;99084.59;105917;1277;137230;-73
2022/08/08 10:09:30;;;;;;;1.50;0.60;;;;;;;23.95;40.69;99079.04;106049;1277;22526;-73
2022/08/08 10:11:57;;;;;;;2.30;0.60;;;;;;;24.06;40.20;99078.51;105734;1277;137389;-73
2022/08/08 10:14:38;;;;;;;0.90;0.50;;;;;;;24.11;40.11;99077.39;106219;1280;22657;-73
2022/08/08 10:17:09;;;;;;;0.90;0.50;;;;;;;24.15;40.10;99074.55;106223;1278;137438;-73
2022/08/08 10:19:40;;;;;;;3.70;0.50;;;;;;;24.30;40.12;99075.19;105963;1280;25486;-73
2022/08/08 10:22:08;;;;;;;2.80;0.60;;;;;;;24.47;40.17;99075.31;106373;1279;22541;-73
2022/08/08 10:24:44;;;;;;;2.00;0.60;;;;;;;24.59;39.53;99073.21;106014;1278;137568;-74
2022/08/08 10:27:15;;;;;;;1.60;0.60;;;;;;;24.67;39.32;99071.58;106384;1277;26631;-75
2022/08/08 10:29:52;;;;;;;2.00;0.60;;;;;;;24.75;39.01;99070.63;106532;1277;138687;-73
2022/08/08 10:32:34;;;;;;;2.90;0.60;;;;;;;24.78;39.04;99073.27;106127;1277;22732;-73
2022/08/08 10:35:14;;;;;;;4.60;0.60;;;;;;;24.79;38.23;99072.73;105778;1280;137504;-74
2022/08/08 10:37:58;;;;;;;1.30;0.70;;;;;;;24.68;37.90;99069.90;105926;1278;22533;-74
2022/08/08 10:40:28;;;;;;;1.80;0.70;;;;;;;24.57;38.85;99069.17;105953;1280;25259;-74
2022/08/08 10:43:10;;;;;;;2.00;0.80;;;;;;;24.69;39.90;99068.98;105851;1277;137005;-75
2022/08/08 10:45:49;;;;;;;3.50;0.60;;;;;;;24.77;39.92;99069.63;105901;1277;24959;-76
2022/08/08 10:48:35;;;;;;;3.80;0.90;;;;;;;24.90;39.64;99066.96;105760;1278;137639;-74
2022/08/08 10:51:12;;;;;;;0.70;0.60;;;;;;;25.10;39.11;99067.51;106192;1277;24329;-74
2022/08/08 10:53:40;;;;;;;3.60;0.70;;;;;;;25.27;38.66;99062.10;106439;1277;137231;-73
2022/08/08 10:56:22;;;;;;;1.60;0.80;;;;;;;25.39;38.91;99060.25;105806;1279;22706;-74
2022/08/08 10:58:56;;;;;;;;;;;;;;;25.48;39.42;99063.70;105997;1280;137479;-75
2022/08/08 11:01:28;;;;;;;1.80;0.50;;;;;;;25.48;38.28;99056.77;105645;1280;25178;-74
2022/08/08 11:04:00;;;;;;;2.60;0.80;;;;;;;25.49;38.50;99057.60;106277;1280;22555;-72
2022/08/08 11:06:32;;;;;;;2.50;0.70;;;;;;;25.44;38.99;99059.05;105973;1277;137250;-73
2022/08/08 11:09:09;;;;;;;1.70;0.80;;;;;;;25.47;39.12;99055.98;105930;1277;25261;-73
2022/08/08 11:11:43;;;;;;;2.90;0.90;;;;;;;25.55;38.09;99053.38;106052;1277;137206;-71
2022/08/08 11:14:24;;;;;;;1.60;0.70;;;;;;;25.65;38.42;99050.27;105795;1278;23140;-71
2022/08/08 11:16:52;;;;;;;1.70;0.60;;;;;;;25.80;38.04;99046.39;105936;1280;137367;-72
2022/08/08 11:19:23;;;;;;;4.60;1.00;;;;;;;25.96;37.92;99049.31;105910;1280;22928;-72
2022/08/08 11:21:53;;;;;;;1.30;0.80;;;;;;;26.11;36.97;99046.52;105746;1280;22627;-74
2022/08/08 11:24:21;;;;;;;1.00;0.70;;;;;;;26.25;37.06;99049.64;106199;1279;137244;-74
2022/08/08 11:26:49;;;;;;;5.90;0.80;;;;;;;26.34;36.53;99042.92;105734;1277;22826;-75
2022/08/08 11:29:22;;;;;;;1.00;0.50;;;;;;;26.35;35.81;99045.42;105633;1277;137824;-75
2022/08/08 11:31:55;;;;;;;3.40;0.70;;;;;;;26.32;35.91;99041.17;106085;1277;22639;-74
2022/08/08 11:34:37;;;;;;;2.30;0.70;;;;;;;26.35;35.77;99045.35;105755;1278;22560;-74
2022/08/08 11:37:05;;;;;;;3.30;0.70;;;;;;;26.48;36.36;99049.87;105918;1278;137614;-75
2022/08/08 11:39:34;;;;;;;2.30;0.90;;;;;;;26.57;36.06;99045.84;105629;1280;25257;-74
2022/08/08 11:42:02;;;;;;;1.80;0.70;;;;;;;26.56;35.23;99044.08;105663;1280;137365;-74
2022/08/08 11:44:30;;;;;;;2.10;0.60;;;;;;;26.53;35.68;99046.73;105930;1279;22541;-74
2022/08/08 11:46:58;;;;;;;;;;;;;;;26.52;35.16;99043.34;105848;1277;137467;-74
2022/08/08 11:49:27;;;;;;;3.70;0.80;;;;;;;26.54;35.80;99050.03;106007;1279;24290;-74
2022/08/08 11:51:54;;;;;;;2.30;0.80;;;;;;;26.54;35.37;99050.45;105966;1277;22812;-74
2022/08/08 11:54:35;;;;;;;1.70;0.80;;;;;;;26.55;35.74;99048.81;105937;1278;137342;-74
2022/08/08 11:57:32;;;;;;;2.80;0.90;;;;;;;26.53;34.88;99044.48;106384;1277;25405;-74
2022/08/08 12:00:16;;;;;;;3.50;1.00;;;;;;;26.47;35.43;99040.23;105960;1278;137199;-77
2022/08/08 12:02:56;;;;;;;4.30;0.90;;;;;;;26.58;35.57;99042.52;105997;1278;25581;-75
2022/08/08 12:05:35;;;;;;;2.90;0.80;;;;;;;26.79;35.75;99040.77;106123;1279;137465;-74
2022/08/08 12:08:37;;;;;;;2.60;0.70;;;;;;;26.95;35.59;99044.41;105914;1278;22652;-74